createdAt,value
2018-05-17T00:01:36.509Z,11.20
2018-05-17T00:04:05.389Z,11.30
2018-05-17T00:06:34.401Z,11.40
2018-05-17T00:09:03.017Z,11.40
2018-05-17T00:11:32.284Z,11.10
2018-05-17T00:14:00.652Z,11.10
2018-05-17T00:16:29.329Z,11.00
2018-05-17T00:18:58.328Z,11.00
2018-05-17T00:21:26.660Z,11.10
2018-05-17T00:23:55.090Z,11.20
2018-05-17T00:26:27.468Z,11.10
2018-05-17T00:28:55.821Z,11.00
2018-05-17T00:31:24.163Z,11.00
2018-05-17T00:33:52.577Z,11.10
2018-05-17T00:36:21.382Z,11.10
2018-05-17T00:38:49.749Z,11.10
2018-05-17T00:41:18.264Z,11.00
2018-05-17T00:43:46.607Z,11.10
2018-05-17T00:46:15.319Z,11.30
2018-05-17T00:48:43.953Z,11.40
2018-05-17T00:51:12.305Z,11.20
2018-05-17T00:53:40.631Z,11.20
2018-05-17T00:56:09.256Z,11.40
2018-05-17T00:58:38.485Z,11.30
2018-05-17T01:01:06.830Z,11.30
2018-05-17T01:03:35.285Z,11.10
2018-05-17T01:06:03.956Z,11.20
2018-05-17T01:08:32.310Z,11.40
2018-05-17T01:11:01.405Z,11.50
2018-05-17T01:13:30.848Z,11.60
2018-05-17T01:15:59.201Z,11.50
2018-05-17T01:18:27.632Z,11.40
2018-05-17T01:20:56.365Z,11.40
2018-05-17T01:23:24.698Z,11.30
2018-05-17T01:25:53.257Z,11.10
2018-05-17T01:28:21.649Z,10.90
2018-05-17T01:30:49.969Z,11.00
2018-05-17T01:33:18.320Z,11.20
2018-05-17T01:35:47.330Z,11.00
2018-05-17T01:38:21.004Z,10.80
2018-05-17T01:40:49.500Z,10.60
2018-05-17T01:43:17.840Z,10.50
2018-05-17T01:45:46.192Z,10.60
2018-05-17T01:48:14.911Z,10.60
2018-05-17T01:50:43.558Z,10.80
2018-05-17T01:53:11.932Z,10.90
2018-05-17T01:55:41.032Z,11.00
2018-05-17T01:58:09.407Z,11.00
2018-05-17T02:00:38.936Z,10.80
2018-05-17T02:03:07.399Z,10.80
2018-05-17T02:05:35.751Z,10.70
2018-05-17T02:08:04.612Z,10.70
2018-05-17T02:10:33.008Z,10.80
2018-05-17T02:13:01.372Z,10.80
2018-05-17T02:15:29.742Z,10.80
2018-05-17T02:17:58.530Z,10.70
2018-05-17T02:20:27.100Z,10.70
2018-05-17T02:22:56.232Z,10.90
2018-05-17T02:25:24.549Z,10.90
2018-05-17T02:27:53.266Z,11.00
2018-05-17T02:30:21.626Z,10.90
2018-05-17T02:32:50.725Z,11.00
2018-05-17T02:35:19.172Z,11.00
2018-05-17T02:37:48.033Z,11.00
2018-05-17T02:40:16.439Z,10.90
2018-05-17T02:42:44.818Z,10.70
2018-05-17T02:45:13.149Z,10.70
2018-05-17T02:47:41.931Z,10.70
2018-05-17T02:50:10.320Z,10.70
2018-05-17T02:52:38.668Z,10.70
2018-05-17T02:55:07.404Z,10.70
2018-05-17T02:57:36.028Z,10.70
2018-05-17T03:00:04.384Z,10.60
2018-05-17T03:02:32.710Z,10.40
2018-05-17T03:05:01.375Z,10.30
2018-05-17T03:07:29.742Z,10.60
2018-05-17T03:09:58.157Z,10.70
2018-05-17T03:12:27.456Z,10.70
2018-05-17T03:14:56.281Z,10.60
2018-05-17T03:17:24.620Z,10.80
2018-05-17T03:19:53.358Z,10.80
2018-05-17T03:22:22.757Z,10.70
2018-05-17T03:24:51.826Z,10.70
2018-05-17T03:27:21.105Z,10.60
2018-05-17T03:29:50.202Z,10.70
2018-05-17T03:32:18.559Z,10.70
2018-05-17T03:34:46.897Z,10.80
2018-05-17T03:37:15.594Z,11.10
2018-05-17T03:39:45.034Z,11.10
2018-05-17T03:42:14.140Z,10.80
2018-05-17T03:44:43.248Z,10.80
2018-05-17T03:47:11.689Z,10.80
2018-05-17T03:49:45.998Z,10.90
2018-05-17T03:52:14.337Z,11.10
2018-05-17T03:54:42.669Z,11.00
2018-05-17T03:57:11.016Z,10.90
2018-05-17T03:59:39.789Z,11.00
2018-05-17T04:02:13.643Z,11.10
2018-05-17T04:05:45.644Z,10.90
2018-05-17T04:08:14.869Z,10.90
2018-05-17T04:10:43.217Z,10.90
2018-05-17T04:13:12.628Z,10.80
2018-05-17T04:15:40.996Z,10.80
2018-05-17T04:18:10.117Z,11.20
2018-05-17T04:23:14.844Z,11.00
2018-05-17T04:25:43.400Z,11.00
2018-05-17T04:28:11.805Z,11.20
2018-05-17T04:30:40.989Z,11.10
2018-05-17T04:33:09.799Z,11.10
2018-05-17T04:35:51.732Z,10.60
2018-05-17T04:38:20.717Z,10.60
2018-05-17T04:40:49.093Z,10.60
2018-05-17T04:43:19.329Z,10.70
2018-05-17T04:45:51.386Z,10.70
2018-05-17T04:48:20.172Z,10.70
2018-05-17T04:50:48.521Z,10.70
2018-05-17T04:53:18.599Z,10.80
2018-05-17T04:55:47.070Z,10.80
2018-05-17T04:58:17.521Z,10.90
2018-05-17T05:00:46.172Z,10.80
2018-05-17T05:03:14.591Z,10.90
2018-05-17T05:05:43.128Z,11.20
2018-05-17T05:08:11.829Z,11.40
2018-05-17T05:10:40.208Z,11.40
2018-05-17T05:13:16.944Z,11.10
2018-05-17T05:15:46.444Z,11.00
2018-05-17T05:18:16.976Z,11.00
2018-05-17T05:20:46.096Z,11.00
2018-05-17T05:23:15.353Z,11.10
2018-05-17T05:25:45.405Z,11.20
2018-05-17T05:28:16.289Z,11.40
2018-05-17T05:31:11.157Z,11.40
2018-05-17T05:36:59.623Z,11.60
2018-05-17T05:39:27.980Z,11.50
2018-05-17T05:41:59.758Z,11.50
2018-05-17T05:44:32.791Z,11.60
2018-05-17T05:47:01.463Z,11.60
2018-05-17T05:49:30.407Z,11.70
2018-05-17T05:52:02.742Z,11.80
2018-05-17T05:54:31.065Z,11.80
2018-05-17T05:57:01.998Z,11.80
2018-05-17T05:59:30.439Z,11.70
2018-05-17T06:02:00.748Z,11.70
2018-05-17T06:04:30.180Z,11.40
2018-05-17T06:06:59.736Z,11.60
2018-05-17T06:09:29.098Z,11.90
2018-05-17T06:11:58.304Z,11.90
2018-05-17T06:14:27.682Z,12.00
2018-05-17T06:16:56.030Z,12.00
2018-05-17T06:19:24.676Z,11.90
2018-05-17T06:21:57.009Z,11.90
2018-05-17T06:24:39.967Z,11.80
2018-05-17T06:27:11.729Z,12.00
2018-05-17T06:29:43.418Z,12.00
2018-05-17T06:32:14.336Z,12.00
2018-05-17T06:34:45.344Z,12.40
2018-05-17T06:40:47.093Z,12.30
2018-05-17T06:43:18.098Z,12.50
2018-05-17T06:45:54.897Z,12.30
2018-05-17T06:54:24.935Z,12.40
2018-05-17T06:56:53.289Z,12.70
2018-05-17T06:59:22.532Z,13.10
2018-05-17T07:01:53.688Z,13.10
2018-05-17T07:04:23.903Z,13.20
2018-05-17T07:06:52.261Z,13.10
2018-05-17T07:09:21.488Z,13.30
2018-05-17T07:11:52.732Z,13.30
2018-05-17T07:14:21.529Z,13.60
2018-05-17T07:16:51.253Z,13.90
2018-05-17T07:19:20.687Z,13.40
2018-05-17T07:21:49.781Z,13.40
2018-05-17T07:24:19.259Z,13.30
2018-05-17T07:26:49.000Z,13.30
2018-05-17T07:29:32.596Z,13.20
2018-05-17T07:32:01.584Z,13.20
2018-05-17T07:37:09.260Z,13.10
2018-05-17T07:39:41.502Z,13.10
2018-05-17T07:42:10.271Z,13.00
2018-05-17T07:44:47.354Z,13.20
2018-05-17T07:47:22.746Z,13.20
2018-05-17T07:49:54.749Z,13.80
2018-05-17T07:52:23.433Z,13.80
2018-05-17T07:54:52.553Z,13.90
2018-05-17T07:57:21.524Z,14.60
2018-05-17T07:59:49.903Z,14.50
2018-05-17T08:02:21.097Z,15.10
2018-05-17T08:05:10.056Z,15.30
2018-05-17T08:07:44.244Z,15.90
2018-05-17T08:10:13.201Z,16.10
2018-05-17T08:12:44.912Z,16.00
2018-05-17T08:15:13.537Z,16.00
2018-05-17T08:17:54.724Z,15.50
2018-05-17T08:20:27.560Z,15.30
2018-05-17T08:22:56.236Z,15.50
2018-05-17T08:25:26.286Z,15.10
2018-05-17T08:27:59.555Z,14.70
2018-05-17T08:30:30.665Z,14.80
2018-05-17T08:32:59.114Z,14.70
2018-05-17T08:35:28.428Z,15.40
2018-05-17T08:38:02.040Z,15.40
2018-05-17T08:41:03.809Z,16.30
2018-05-17T08:43:32.296Z,16.40
2018-05-17T08:46:07.906Z,17.20
2018-05-17T08:48:36.593Z,17.80
2018-05-17T08:51:05.072Z,17.80
2018-05-17T08:53:33.487Z,18.10
2018-05-17T08:56:02.518Z,18.00
2018-05-17T08:58:36.290Z,18.40
2018-05-17T09:01:14.243Z,18.30
2018-05-17T09:03:57.531Z,18.90
2018-05-17T09:06:33.476Z,18.90
2018-05-17T09:09:02.946Z,19.50
2018-05-17T09:11:38.628Z,19.10
2018-05-17T09:14:08.107Z,19.50
2018-05-17T09:16:36.502Z,19.20
2018-05-17T09:19:12.177Z,19.00
2018-05-17T09:21:48.642Z,19.70
2018-05-17T09:24:18.933Z,20.00
2018-05-17T09:26:50.224Z,20.00
2018-05-17T09:29:18.747Z,20.20
2018-05-17T09:32:03.407Z,21.10
2018-05-17T09:34:47.370Z,20.70
2018-05-17T09:37:16.834Z,21.00
2018-05-17T09:39:45.688Z,21.00
2018-05-17T09:45:48.053Z,21.80
2018-05-17T09:48:16.741Z,21.30
2018-05-17T09:50:45.226Z,21.30
2018-05-17T09:53:14.910Z,22.60
2018-05-17T09:55:46.620Z,23.60
2018-05-17T09:58:15.250Z,23.50
2018-05-17T10:00:47.868Z,23.80
2018-05-17T10:03:16.228Z,23.00
2018-05-17T10:05:45.590Z,23.40
2018-05-17T10:08:23.547Z,23.40
2018-05-17T10:10:51.940Z,23.20
2018-05-17T10:13:20.605Z,22.60
2018-05-17T10:15:51.502Z,22.00
2018-05-17T10:18:22.996Z,20.60
2018-05-17T10:21:19.716Z,21.30
2018-05-17T10:23:49.141Z,21.30
2018-05-17T10:26:24.940Z,21.80
2018-05-17T10:28:54.384Z,21.90
2018-05-17T10:31:22.743Z,21.70
2018-05-17T10:33:56.819Z,22.60
2018-05-17T10:36:25.385Z,22.60
2018-05-17T10:38:54.906Z,21.60
2018-05-17T10:41:23.930Z,21.00
2018-05-17T10:43:52.329Z,21.30
2018-05-17T10:46:20.713Z,21.90
2018-05-17T10:48:49.602Z,21.50
2018-05-17T10:51:17.988Z,21.30
2018-05-17T10:53:46.354Z,20.80
2018-05-17T10:56:15.284Z,20.80
2018-05-17T10:58:45.798Z,20.50
2018-05-17T11:01:24.654Z,20.40
2018-05-17T11:03:58.691Z,20.40
2018-05-17T11:06:27.864Z,20.20
2018-05-17T11:08:56.301Z,20.10
2018-05-17T11:14:22.756Z,19.80
2018-05-17T11:16:52.110Z,19.80
2018-05-17T11:19:22.128Z,20.00
2018-05-17T11:21:51.913Z,20.60
2018-05-17T11:24:22.409Z,19.90
2018-05-17T11:26:51.006Z,19.90
2018-05-17T11:29:22.582Z,20.10
2018-05-17T11:31:53.079Z,19.90
2018-05-17T11:34:23.801Z,19.20
2018-05-17T11:36:52.166Z,19.20
2018-05-17T11:39:34.646Z,19.00
2018-05-17T11:42:09.504Z,19.80
2018-05-17T11:44:42.332Z,20.60
2018-05-17T11:47:10.700Z,20.90
2018-05-17T11:49:52.408Z,21.00
2018-05-17T11:52:23.721Z,20.70
2018-05-17T11:54:52.581Z,20.70
2018-05-17T11:57:22.655Z,20.60
2018-05-17T11:59:51.906Z,20.80
2018-05-17T12:05:25.341Z,20.60
2018-05-17T12:07:54.154Z,19.80
2018-05-17T12:16:59.869Z,19.20
2018-05-17T12:19:55.980Z,18.80
2018-05-17T12:22:26.551Z,18.30
2018-05-17T12:24:56.613Z,18.10
2018-05-17T12:27:25.803Z,18.20
2018-05-17T12:29:56.464Z,18.10
2018-05-17T12:32:31.030Z,18.20
2018-05-17T12:35:00.491Z,18.10
2018-05-17T12:37:31.610Z,18.00
2018-05-17T12:40:17.221Z,18.00
2018-05-17T12:42:48.371Z,18.40
2018-05-17T12:45:21.827Z,18.40
2018-05-17T12:47:57.012Z,18.90
2018-05-17T12:50:28.497Z,18.90
2018-05-17T12:53:14.629Z,19.10
2018-05-17T12:56:02.182Z,19.30
2018-05-17T12:59:04.524Z,19.80
2018-05-17T13:01:40.090Z,20.40
2018-05-17T13:04:26.384Z,20.60
2018-05-17T13:07:07.931Z,20.50
2018-05-17T13:09:38.086Z,20.00
2018-05-17T13:12:06.748Z,19.90
2018-05-17T13:14:37.273Z,20.10
2018-05-17T13:17:18.583Z,20.10
2018-05-17T13:23:23.184Z,18.60
2018-05-17T13:25:56.724Z,17.00
2018-05-17T13:28:39.871Z,17.00
2018-05-17T13:37:34.045Z,16.10
2018-05-17T13:40:02.392Z,16.10
2018-05-17T13:42:34.202Z,16.20
2018-05-17T13:45:03.445Z,16.10
2018-05-17T13:47:33.015Z,16.20
2018-05-17T13:50:08.610Z,16.40
2018-05-17T13:52:37.851Z,16.60
2018-05-17T13:55:07.296Z,16.70
2018-05-17T13:57:35.675Z,16.50
2018-05-17T14:00:06.604Z,16.50
2018-05-17T14:02:35.327Z,16.20
2018-05-17T14:05:04.668Z,16.00
2018-05-17T14:07:40.042Z,16.00
2018-05-17T14:10:19.293Z,15.90
2018-05-17T14:12:52.084Z,15.80
2018-05-17T14:15:20.697Z,15.60
2018-05-17T14:17:49.773Z,15.60
2018-05-17T14:20:33.126Z,15.70
2018-05-17T14:23:03.402Z,15.60
2018-05-17T14:25:32.186Z,15.60
2018-05-17T14:28:00.656Z,15.60
2018-05-17T14:30:35.993Z,15.60
2018-05-17T14:33:04.695Z,15.40
2018-05-17T14:35:35.434Z,15.20
2018-05-17T14:38:07.301Z,15.20
2018-05-17T14:40:36.185Z,15.40
2018-05-17T14:43:04.578Z,15.50
2018-05-17T14:45:35.543Z,15.50
2018-05-17T14:48:06.976Z,15.60
2018-05-17T14:50:36.390Z,15.60
2018-05-17T14:53:15.637Z,15.70
2018-05-17T14:55:46.471Z,15.70
2018-05-17T15:01:14.830Z,15.50
2018-05-17T15:03:50.824Z,15.60
2018-05-17T15:06:24.772Z,15.60
2018-05-17T15:08:55.828Z,15.50
2018-05-17T15:11:34.694Z,15.70
2018-05-17T15:14:05.862Z,15.90
2018-05-17T15:16:34.281Z,15.90
2018-05-17T15:19:02.802Z,15.80
2018-05-17T15:21:32.508Z,16.00
2018-05-17T15:24:06.304Z,16.10
2018-05-17T15:26:34.965Z,16.00
2018-05-17T15:29:12.021Z,16.10
2018-05-17T15:31:55.766Z,16.00
2018-05-17T15:34:29.702Z,16.00
2018-05-17T15:37:01.325Z,16.10
2018-05-17T15:39:31.897Z,16.10
2018-05-17T15:42:00.777Z,16.00
2018-05-17T15:44:29.866Z,16.20
2018-05-17T15:46:59.668Z,15.70
2018-05-17T15:52:52.974Z,15.80
2018-05-17T15:55:22.789Z,15.70
2018-05-17T15:58:10.292Z,15.50
2018-05-17T16:00:39.924Z,15.40
2018-05-17T16:03:31.394Z,15.50
2018-05-17T16:06:02.106Z,15.30
2018-05-17T16:08:32.129Z,15.30
2018-05-17T16:14:24.859Z,15.40
2018-05-17T16:16:55.283Z,15.40
2018-05-17T16:19:24.655Z,15.20
2018-05-17T16:22:24.432Z,15.20
2018-05-17T16:28:25.162Z,15.00
2018-05-17T16:30:53.643Z,15.00
2018-05-17T16:36:43.174Z,14.80
2018-05-17T16:39:15.608Z,14.80
2018-05-17T16:41:47.258Z,14.80
2018-05-17T16:44:18.251Z,14.90
2018-05-17T16:46:46.619Z,14.70
2018-05-17T16:49:15.277Z,14.50
2018-05-17T16:51:45.094Z,14.60
2018-05-17T16:54:17.580Z,14.60
2018-05-17T16:56:49.116Z,14.50
2018-05-17T16:59:19.834Z,14.60
2018-05-17T17:01:48.195Z,14.70
2018-05-17T17:04:24.536Z,14.70
2018-05-17T17:06:53.021Z,14.70
2018-05-17T17:09:22.233Z,14.70
2018-05-17T17:11:51.714Z,14.50
2018-05-17T17:14:23.572Z,14.50
2018-05-17T17:16:54.032Z,14.30
2018-05-17T17:19:23.053Z,14.30
2018-05-17T17:21:51.523Z,14.40
2018-05-17T17:24:22.229Z,14.70
2018-05-17T17:26:52.092Z,14.90
2018-05-17T17:29:20.455Z,14.90
2018-05-17T17:31:50.799Z,15.00
2018-05-17T17:34:19.501Z,14.80
2018-05-17T17:36:48.588Z,14.70
2018-05-17T17:39:18.624Z,14.90
2018-05-17T17:41:49.283Z,15.00
2018-05-17T17:44:17.617Z,14.80
2018-05-17T17:46:46.282Z,14.80
2018-05-17T17:49:15.227Z,14.90
2018-05-17T17:55:04.688Z,14.80
2018-05-17T17:57:33.381Z,14.80
2018-05-17T18:00:03.765Z,14.80
2018-05-17T18:02:32.624Z,14.80
2018-05-17T18:05:01.136Z,14.80
2018-05-17T18:07:30.913Z,14.70
2018-05-17T18:10:03.031Z,14.80
2018-05-17T18:18:52.077Z,14.90
2018-05-17T18:21:20.465Z,14.70
2018-05-17T18:23:54.043Z,14.80
2018-05-17T18:26:22.399Z,14.80
2018-05-17T18:28:50.793Z,14.60
2018-05-17T18:31:19.497Z,14.40
2018-05-17T18:33:48.145Z,14.30
2018-05-17T18:36:16.442Z,14.30
2018-05-17T18:38:45.142Z,14.10
2018-05-17T18:41:17.740Z,13.90
2018-05-17T18:44:00.732Z,13.90
2018-05-17T18:46:29.417Z,14.10
2018-05-17T18:48:57.898Z,14.20
2018-05-17T18:51:26.373Z,14.20
2018-05-17T18:53:56.632Z,14.10
2018-05-17T18:56:25.143Z,14.10
2018-05-17T18:59:06.763Z,14.10
2018-05-17T19:01:35.537Z,14.00
2018-05-17T19:04:04.705Z,13.90
2018-05-17T19:06:35.848Z,13.60
2018-05-17T19:09:15.684Z,13.60
2018-05-17T19:11:44.037Z,13.60
2018-05-17T19:14:14.161Z,13.70
2018-05-17T19:16:42.562Z,13.50
2018-05-17T19:19:10.901Z,13.20
2018-05-17T19:21:39.697Z,13.00
2018-05-17T19:24:08.048Z,13.00
2018-05-17T19:26:37.181Z,13.30
2018-05-17T19:29:06.006Z,13.30
2018-05-17T19:31:34.482Z,13.50
2018-05-17T19:34:02.818Z,13.60
2018-05-17T19:36:31.660Z,13.70
2018-05-17T19:39:00.069Z,13.60
2018-05-17T19:41:28.463Z,13.50
2018-05-17T19:43:57.509Z,13.40
2018-05-17T19:46:25.976Z,13.30
2018-05-17T19:48:54.501Z,13.20
2018-05-17T19:51:24.160Z,13.00
2018-05-17T19:53:52.640Z,13.00
2018-05-17T19:56:21.102Z,13.00
2018-05-17T19:58:49.824Z,13.00
2018-05-17T20:01:18.196Z,13.10
2018-05-17T20:10:32.011Z,13.00
2018-05-17T20:13:02.280Z,13.10
2018-05-17T20:15:30.688Z,13.10
2018-05-17T20:17:59.040Z,13.20
2018-05-17T20:20:28.243Z,13.20
2018-05-17T20:22:56.611Z,13.10
2018-05-17T20:25:24.956Z,13.20
2018-05-17T20:27:54.041Z,13.20
2018-05-17T20:30:22.453Z,13.30
2018-05-17T20:32:50.787Z,13.20
2018-05-17T20:35:19.428Z,13.10
2018-05-17T20:37:47.792Z,13.00
2018-05-17T20:40:16.186Z,13.10
2018-05-17T20:42:45.008Z,13.00
2018-05-17T20:45:13.344Z,12.90
2018-05-17T20:47:41.753Z,12.80
2018-05-17T20:50:10.112Z,13.00
2018-05-17T20:52:39.248Z,13.20
2018-05-17T20:55:07.878Z,13.20
2018-05-17T20:57:36.680Z,13.30
2018-05-17T21:00:05.101Z,13.20
2018-05-17T21:02:33.706Z,13.10
2018-05-17T21:05:04.401Z,12.90
2018-05-17T21:07:33.030Z,12.60
2018-05-17T21:10:02.441Z,12.60
2018-05-17T21:12:31.108Z,12.80
2018-05-17T21:14:59.583Z,12.80
2018-05-17T21:17:28.007Z,12.80
2018-05-17T21:19:58.060Z,12.80
2018-05-17T21:22:26.391Z,12.90
2018-05-17T21:24:55.505Z,13.00
2018-05-17T21:27:24.678Z,13.00
2018-05-17T21:29:53.041Z,13.00
2018-05-17T21:32:21.465Z,13.00
2018-05-17T21:34:53.353Z,13.00
2018-05-17T21:41:56.941Z,12.70
2018-05-17T21:44:26.173Z,12.40
2018-05-17T21:46:56.389Z,12.40
2018-05-17T21:49:25.174Z,12.50
2018-05-17T21:51:57.825Z,12.60
2018-05-17T21:54:32.780Z,12.50
2018-05-17T21:57:01.335Z,12.60
2018-05-17T21:59:29.683Z,12.60
2018-05-17T22:01:58.633Z,12.50
2018-05-17T22:04:27.821Z,12.40
2018-05-17T22:06:57.045Z,12.40
2018-05-17T22:09:25.719Z,12.40
2018-05-17T22:11:54.112Z,12.40
2018-05-17T22:14:22.462Z,12.40
2018-05-17T22:16:52.108Z,12.40
2018-05-17T22:19:20.456Z,12.40
2018-05-17T22:21:48.789Z,12.40
2018-05-17T22:24:17.473Z,12.50
2018-05-17T22:26:46.400Z,12.50
2018-05-17T22:29:14.909Z,12.50
2018-05-17T22:31:44.619Z,12.60
2018-05-17T22:34:13.002Z,12.60
2018-05-17T22:36:41.408Z,12.70
2018-05-17T22:39:09.796Z,12.50
2018-05-17T22:41:38.165Z,12.70
2018-05-17T22:44:06.529Z,12.80
2018-05-17T22:46:35.189Z,12.70
2018-05-17T22:49:12.749Z,12.50
2018-05-17T22:51:41.117Z,12.50
2018-05-17T22:54:09.851Z,12.50
2018-05-17T22:56:42.643Z,12.10
2018-05-17T22:59:10.996Z,12.20
2018-05-17T23:01:40.113Z,12.10
2018-05-17T23:04:10.381Z,12.10
2018-05-17T23:06:38.733Z,12.10
2018-05-17T23:09:07.081Z,12.20
2018-05-17T23:11:36.267Z,12.20
2018-05-17T23:14:05.692Z,12.20
2018-05-17T23:16:34.023Z,12.20
2018-05-17T23:19:02.530Z,11.90
2018-05-17T23:21:32.395Z,11.80
2018-05-17T23:24:01.196Z,11.80
2018-05-17T23:26:29.561Z,11.90
2018-05-17T23:28:57.944Z,12.00
2018-05-17T23:31:26.269Z,12.00
2018-05-17T23:33:55.008Z,12.10
2018-05-17T23:36:23.359Z,11.80
2018-05-17T23:38:51.748Z,11.70
2018-05-17T23:41:25.760Z,11.70
2018-05-17T23:43:54.441Z,11.60
2018-05-17T23:46:22.810Z,11.60
2018-05-17T23:48:51.550Z,11.80
2018-05-17T23:51:20.327Z,11.70
2018-05-17T23:53:48.664Z,11.60
2018-05-17T23:56:17.060Z,11.40
2018-05-17T23:58:45.769Z,11.30
